Time;durP1;ratioP1;P1;durP2;ratioP2;P2;SDS_P1;SDS_P2;PMS_P1;PMS_P2;Temp;Humidity;BMP_temperature;BMP_pressure;BME280_temperature;BME280_humidity;BME280_pressure;Samples;Min_cycle;Max_cycle;Signal;HPM_P1;HPM_P2
2023/05/24 00:02:43;;;;;;;1.93;1.50;;;;;;;18.61;100.00;99591.94;6274622;28;20051;-71
2023/05/24 00:05:45;;;;;;;4.20;1.60;;;;;;;18.60;100.00;99590.31;6273504;28;20485;-71
2023/05/24 00:08:46;;;;;;;2.70;1.80;;;;;;;18.55;100.00;99593.41;6272330;28;20057;-70
2023/05/24 00:11:47;;;;;;;2.50;2.07;;;;;;;18.57;100.00;99575.56;6272082;28;20056;-71
2023/05/24 00:14:47;;;;;;;3.77;1.87;;;;;;;18.49;100.00;99573.75;6281795;28;20089;-71
2023/05/24 00:17:48;;;;;;;2.73;2.17;;;;;;;18.39;100.00;99573.00;6289555;28;20567;-71
2023/05/24 00:20:52;;;;;;;5.57;2.20;;;;;;;18.33;100.00;99585.03;6296369;28;20052;-71
2023/05/24 00:23:52;;;;;;;3.38;2.38;;;;;;;18.39;100.00;99599.44;6294590;28;20053;-71
2023/05/24 00:26:55;;;;;;;2.57;2.10;;;;;;;18.41;100.00;99596.59;6273645;28;20421;-71
2023/05/24 00:29:56;;;;;;;2.53;2.20;;;;;;;18.36;100.00;99597.09;6272693;28;20498;-70
2023/05/24 00:32:59;;;;;;;3.07;1.97;;;;;;;18.36;100.00;99586.53;6271762;28;20049;-71
2023/05/24 00:36:00;;;;;;;6.20;2.17;;;;;;;18.34;100.00;99596.41;6272608;28;20397;-70
2023/05/24 00:39:05;;;;;;;2.80;2.30;;;;;;;18.40;100.00;99605.53;6271300;28;20052;-70
2023/05/24 00:42:06;;;;;;;4.55;2.00;;;;;;;18.39;100.00;99610.00;6269711;28;20084;-71
2023/05/24 00:45:07;;;;;;;3.23;2.27;;;;;;;18.35;100.00;99603.38;6273435;28;20057;-71
2023/05/24 00:48:09;;;;;;;4.13;2.47;;;;;;;18.32;100.00;99615.06;6271342;28;20056;-70
2023/05/24 00:51:11;;;;;;;2.58;1.98;;;;;;;18.27;100.00;99609.41;6272284;28;20049;-71
2023/05/24 00:54:13;;;;;;;2.70;2.10;;;;;;;18.23;100.00;99600.13;6271419;28;20059;-71
2023/05/24 00:57:14;;;;;;;2.40;2.20;;;;;;;18.20;100.00;99605.75;6284825;28;20442;-71
2023/05/24 01:00:15;;;;;;;1.90;1.70;;;;;;;18.20;100.00;99603.09;6271420;28;20080;-71
2023/05/24 01:03:18;;;;;;;2.37;1.93;;;;;;;18.18;100.00;99599.78;6271018;28;20515;-71
2023/05/24 01:06:22;;;;;;;3.25;2.20;;;;;;;18.14;100.00;99598.44;6272364;28;20060;-71
2023/05/24 01:09:35;;;;;;;2.30;1.90;;;;;;;18.10;100.00;99599.72;6289617;28;20048;-70
2023/05/24 01:12:45;;;;;;;7.68;2.28;;;;;;;18.02;100.00;99602.28;6295597;28;20464;-71
2023/05/24 01:15:55;;;;;;;2.33;1.90;;;;;;;18.01;100.00;99601.44;6285519;28;20067;-71
2023/05/24 01:19:01;;;;;;;3.17;2.30;;;;;;;18.05;100.00;99597.50;6274861;28;20049;-71
2023/05/24 01:22:39;;;;;;;3.70;2.00;;;;;;;18.05;100.00;99594.88;6271610;28;20102;-71
2023/05/24 01:26:20;;;;;;;2.75;2.13;;;;;;;17.95;100.00;99588.03;6271824;28;20077;-71
2023/05/24 01:29:22;;;;;;;2.55;1.92;;;;;;;17.84;100.00;99573.28;6270621;28;20053;-71
2023/05/24 01:32:23;;;;;;;;;;;;;;;17.92;100.00;99578.63;6270744;28;20397;-71
2023/05/24 01:35:23;;;;;;;2.70;2.20;;;;;;;17.99;100.00;99570.91;6290855;28;19974;-71
2023/05/24 01:38:24;;;;;;;3.07;2.00;;;;;;;17.95;100.00;99574.84;6296717;28;20405;-70
2023/05/24 01:41:28;;;;;;;2.72;2.03;;;;;;;17.93;100.00;99580.25;6296165;28;20056;-70
2023/05/24 01:44:59;;;;;;;4.35;2.38;;;;;;;17.83;100.00;99572.44;6289699;28;20041;-70
2023/05/24 01:48:17;;;;;;;3.88;2.22;;;;;;;17.79;100.00;99572.84;6292338;28;20057;-70
2023/05/24 01:51:22;;;;;;;2.97;1.98;;;;;;;17.80;100.00;99566.59;6296230;28;20053;-71
2023/05/24 01:54:30;;;;;;;2.50;1.95;;;;;;;17.78;100.00;99565.94;6276541;28;20049;-71
2023/05/24 01:57:35;;;;;;;4.57;2.17;;;;;;;17.73;100.00;99561.13;6271348;28;20064;-70
2023/05/24 02:00:38;;;;;;;3.70;2.28;;;;;;;17.69;100.00;99557.13;6270071;28;20420;-70
2023/05/24 02:03:39;;;;;;;3.35;2.10;;;;;;;17.71;100.00;99555.97;6274894;28;20395;-70
2023/05/24 02:06:40;;;;;;;4.45;2.20;;;;;;;17.70;100.00;99562.22;6295864;28;20048;-70
2023/05/24 02:09:41;;;;;;;3.50;2.22;;;;;;;17.69;100.00;99563.22;6294873;28;20063;-71
2023/05/24 02:12:42;;;;;;;3.75;2.00;;;;;;;17.71;100.00;99560.44;6295975;28;20072;-71
2023/05/24 02:15:43;;;;;;;3.60;2.13;;;;;;;17.57;100.00;99568.88;6287805;28;20045;-71
2023/05/24 02:18:46;;;;;;;3.17;2.17;;;;;;;17.52;100.00;99567.53;6283991;28;20053;-71
2023/05/24 02:21:47;;;;;;;2.42;1.95;;;;;;;17.51;100.00;99571.13;6294890;28;20074;-71
2023/05/24 02:24:48;;;;;;;4.25;2.22;;;;;;;17.40;100.00;99559.94;6292209;28;20460;-71
2023/05/24 02:27:49;;;;;;;2.10;1.65;;;;;;;17.48;100.00;99571.44;6288143;28;20056;-71
2023/05/24 02:30:50;;;;;;;4.20;2.53;;;;;;;17.39;100.00;99574.94;6295339;28;20050;-71
2023/05/24 02:33:50;;;;;;;3.17;1.95;;;;;;;17.17;100.00;99578.00;6299585;28;20127;-71
2023/05/24 02:36:53;;;;;;;3.13;2.58;;;;;;;17.14;100.00;99584.41;6290813;28;20094;-71
2023/05/24 02:39:53;;;;;;;10.60;2.50;;;;;;;17.26;100.00;99583.22;6300215;28;20063;-71
2023/05/24 02:42:54;;;;;;;2.53;2.10;;;;;;;17.25;100.00;99586.81;6300143;28;20044;-71
2023/05/24 02:45:55;;;;;;;3.75;2.10;;;;;;;17.25;100.00;99591.28;6298468;28;20095;-70
2023/05/24 02:48:58;;;;;;;3.53;2.45;;;;;;;17.19;100.00;99600.59;6300205;28;20090;-70
2023/05/24 02:51:59;;;;;;;2.67;2.30;;;;;;;17.20;100.00;99594.38;6298781;28;20044;-70
2023/05/24 02:54:59;;;;;;;4.97;2.60;;;;;;;17.31;100.00;99593.31;6300171;28;20049;-70
2023/05/24 02:58:00;;;;;;;3.33;2.25;;;;;;;17.45;100.00;99595.47;6291557;28;20098;-71
2023/05/24 03:01:01;;;;;;;3.10;2.35;;;;;;;17.48;100.00;99597.81;6274111;28;20094;-71
2023/05/24 03:04:02;;;;;;;2.72;2.25;;;;;;;17.56;100.00;99606.78;6273609;28;20041;-71
2023/05/24 03:07:02;;;;;;;3.75;2.35;;;;;;;17.54;100.00;99601.63;6274003;28;20451;-71
2023/05/24 03:10:04;;;;;;;6.55;2.40;;;;;;;17.62;100.00;99604.34;6276056;28;20057;-71
2023/05/24 03:13:04;;;;;;;3.07;2.30;;;;;;;17.64;100.00;99602.41;6274669;28;20065;-70
2023/05/24 03:16:05;;;;;;;2.05;1.85;;;;;;;17.70;100.00;99612.34;6281393;28;20285;-70
2023/05/24 03:19:06;;;;;;;2.77;2.23;;;;;;;17.75;100.00;99611.94;6298346;28;20045;-71
2023/05/24 03:22:07;;;;;;;4.35;2.28;;;;;;;17.68;100.00;99608.22;6298197;28;20052;-71
2023/05/24 03:25:10;;;;;;;3.70;2.45;;;;;;;17.67;100.00;99602.13;6289395;28;20055;-71
2023/05/24 03:28:13;;;;;;;4.30;2.47;;;;;;;17.75;100.00;99611.06;6292017;28;20056;-71
2023/05/24 03:31:14;;;;;;;2.53;2.03;;;;;;;17.78;100.00;99611.59;6299088;28;20048;-70
2023/05/24 03:34:15;;;;;;;4.90;2.73;;;;;;;17.78;100.00;99611.59;6298184;28;20048;-71
2023/05/24 03:37:15;;;;;;;2.57;2.17;;;;;;;17.81;100.00;99623.66;6278784;28;20053;-71
2023/05/24 03:40:16;;;;;;;3.63;2.40;;;;;;;17.77;100.00;99614.38;6272863;28;20045;-70
2023/05/24 03:43:17;;;;;;;3.33;2.78;;;;;;;17.74;100.00;99620.81;6282671;28;20067;-71
2023/05/24 03:46:18;;;;;;;4.63;3.05;;;;;;;17.67;100.00;99617.94;6279888;28;20044;-70
2023/05/24 03:49:18;;;;;;;4.10;3.00;;;;;;;17.69;100.00;99608.06;6273960;28;20098;-71
2023/05/24 03:52:19;;;;;;;3.10;2.75;;;;;;;17.72;100.00;99612.22;6273028;28;20057;-71
2023/05/24 03:55:22;;;;;;;7.85;3.13;;;;;;;17.66;100.00;99611.00;6292361;28;20463;-71
2023/05/24 03:58:27;;;;;;;6.78;3.00;;;;;;;17.65;100.00;99613.81;6297255;28;20059;-71
2023/05/24 04:01:30;;;;;;;4.45;3.10;;;;;;;17.68;100.00;99619.59;6298513;28;20071;-71
2023/05/24 04:04:31;;;;;;;5.32;2.80;;;;;;;17.76;100.00;99620.66;6296542;28;20186;-71
2023/05/24 04:07:37;;;;;;;5.33;3.23;;;;;;;17.74;100.00;99626.09;6285552;28;20470;-71
2023/05/24 04:10:38;;;;;;;4.25;2.83;;;;;;;17.75;100.00;99624.25;6272417;28;20064;-70
2023/05/24 04:13:38;;;;;;;5.00;3.07;;;;;;;17.79;100.00;99633.53;6274402;28;20045;-71
2023/05/24 04:16:40;;;;;;;3.53;2.60;;;;;;;17.80;100.00;99629.94;6272268;28;20049;-70
2023/05/24 04:19:45;;;;;;;4.18;3.05;;;;;;;17.85;100.00;99636.47;6273365;28;20053;-71
2023/05/24 04:22:48;;;;;;;5.75;3.00;;;;;;;17.79;100.00;99633.53;6273332;28;20049;-71
2023/05/24 04:25:49;;;;;;;5.82;3.00;;;;;;;17.81;100.00;99636.84;6272757;28;20114;-71
2023/05/24 04:28:50;;;;;;;4.30;3.03;;;;;;;17.87;100.00;99642.41;6272020;28;20057;-70
2023/05/24 04:31:55;;;;;;;3.65;2.90;;;;;;;17.96;100.00;99637.22;6272946;28;20053;-71
2023/05/24 04:34:56;;;;;;;4.25;2.92;;;;;;;17.84;100.00;99641.88;6273818;28;20094;-71
2023/05/24 04:37:58;;;;;;;7.23;2.93;;;;;;;17.86;100.00;99646.03;6290339;28;20715;-71
2023/05/24 04:41:01;;;;;;;3.05;2.75;;;;;;;17.74;100.00;99649.81;6296671;28;20101;-71
2023/05/24 04:44:02;;;;;;;6.55;3.15;;;;;;;17.77;100.00;99652.19;6296158;28;20110;-71
2023/05/24 04:47:03;;;;;;;6.00;3.57;;;;;;;17.85;100.00;99656.72;6294197;28;20048;-71
2023/05/24 04:50:05;;;;;;;4.57;2.88;;;;;;;17.81;100.00;99655.31;6272914;28;20128;-71
2023/05/24 04:53:05;;;;;;;;;;;;;;;17.67;100.00;99654.88;6271455;28;20389;-70
2023/05/24 04:56:06;;;;;;;6.22;3.22;;;;;;;17.80;100.00;99664.25;6275654;28;19920;-70
2023/05/24 04:59:09;;;;;;;9.10;3.65;;;;;;;17.81;100.00;99650.06;6296003;28;20074;-71
2023/05/24 05:02:10;;;;;;;4.38;3.08;;;;;;;17.80;100.00;99664.25;6295977;28;20059;-71
2023/05/24 05:05:11;;;;;;;9.77;3.70;;;;;;;17.91;100.00;99664.88;6295790;28;20083;-71
2023/05/24 05:08:12;;;;;;;6.33;3.50;;;;;;;17.88;100.00;99657.25;6282271;28;20507;-71
2023/05/24 05:11:13;;;;;;;5.03;3.27;;;;;;;18.08;100.00;99660.59;6269481;28;20360;-71
2023/05/24 05:14:15;;;;;;;5.27;3.73;;;;;;;18.07;100.00;99658.09;6258523;28;20081;-71
2023/05/24 05:17:16;;;;;;;6.22;3.58;;;;;;;17.98;100.00;99662.47;6280308;28;20500;-71
2023/05/24 05:20:17;;;;;;;6.85;4.18;;;;;;;17.88;100.00;99665.19;6278696;28;20318;-71
2023/05/24 05:23:17;;;;;;;6.57;4.05;;;;;;;18.02;100.00;99663.00;6284654;28;20048;-71
2023/05/24 05:26:18;;;;;;;4.75;3.38;;;;;;;18.10;100.00;99661.25;6280055;28;20048;-72
2023/05/24 05:29:19;;;;;;;5.20;3.50;;;;;;;18.16;100.00;99669.53;6289036;28;20489;-72
2023/05/24 05:32:20;;;;;;;4.95;3.85;;;;;;;18.18;100.00;99678.13;6292055;28;20056;-72
2023/05/24 05:35:23;;;;;;;6.78;4.18;;;;;;;18.06;100.00;99677.56;6295252;28;20052;-72
2023/05/24 05:38:23;;;;;;;6.47;4.38;;;;;;;18.12;100.00;99677.78;6287303;28;20408;-72
2023/05/24 05:41:24;;;;;;;4.93;3.50;;;;;;;18.16;100.00;99683.59;6270995;28;20052;-72
2023/05/24 05:44:25;;;;;;;7.57;3.93;;;;;;;18.26;100.00;99678.22;6271253;28;20053;-73
2023/05/24 05:47:26;;;;;;;5.77;3.80;;;;;;;18.27;100.00;99674.59;6271162;28;20060;-73
2023/05/24 05:50:27;;;;;;;5.15;3.92;;;;;;;18.28;100.00;99681.53;6280703;28;20053;-72
2023/05/24 05:53:27;;;;;;;7.33;4.10;;;;;;;18.26;100.00;99679.06;6282570;28;20052;-72
2023/05/24 05:56:28;;;;;;;8.32;3.97;;;;;;;18.27;100.00;99679.88;6279670;28;20049;-72
2023/05/24 05:59:34;;;;;;;6.15;3.22;;;;;;;18.13;100.00;99689.97;6280515;28;20080;-72
2023/05/24 06:02:37;;;;;;;4.95;3.45;;;;;;;18.18;100.00;99692.19;6278802;28;20080;-72
2023/05/24 06:05:41;;;;;;;8.10;3.33;;;;;;;18.18;100.00;99692.19;6287819;28;20061;-72
2023/05/24 06:08:41;;;;;;;5.85;4.15;;;;;;;18.31;100.00;99691.81;6277443;28;20044;-72
2023/05/24 06:11:43;;;;;;;5.00;3.27;;;;;;;18.41;100.00;99692.56;6289519;28;20059;-72
2023/05/24 06:14:47;;;;;;;8.35;3.88;;;;;;;18.41;100.00;99695.19;6299824;28;20044;-72
2023/05/24 06:17:50;;;;;;;5.43;4.00;;;;;;;18.28;100.00;99706.16;6277278;28;20053;-72
2023/05/24 06:20:51;;;;;;;8.90;3.85;;;;;;;18.29;100.00;99706.97;6281336;28;20048;-71
2023/05/24 06:23:51;;;;;;;8.47;4.00;;;;;;;18.33;100.00;99701.22;6298415;28;20048;-71
2023/05/24 06:26:55;;;;;;;4.72;3.70;;;;;;;18.52;100.00;99694.13;6279797;28;20060;-71
2023/05/24 06:29:58;;;;;;;5.35;3.50;;;;;;;18.56;100.00;99702.56;6269953;28;20053;-71
2023/05/24 06:33:00;;;;;;;4.13;3.13;;;;;;;18.44;100.00;99715.19;6292661;28;20059;-72
2023/05/24 06:36:01;;;;;;;8.75;4.20;;;;;;;18.36;100.00;99715.09;6298276;28;20048;-72
2023/05/24 06:39:04;;;;;;;4.85;3.60;;;;;;;18.50;100.00;99712.75;6299168;28;20052;-71
2023/05/24 06:42:04;;;;;;;6.97;4.10;;;;;;;18.62;100.00;99728.38;6296964;28;20458;-71
2023/05/24 06:45:07;;;;;;;5.13;3.67;;;;;;;18.40;100.00;99733.13;6289052;28;20041;-70
2023/05/24 06:48:07;;;;;;;6.47;3.40;;;;;;;18.43;100.00;99732.00;6298160;28;20060;-71
2023/05/24 06:51:11;;;;;;;7.73;4.03;;;;;;;18.46;100.00;99735.16;6280460;28;20057;-70
2023/05/24 06:54:11;;;;;;;5.18;3.65;;;;;;;18.54;100.00;99737.06;6273559;28;20135;-70
2023/05/24 06:57:12;;;;;;;5.17;3.53;;;;;;;18.71;100.00;99740.66;6293497;28;20049;-71
2023/05/24 07:00:13;;;;;;;5.10;3.57;;;;;;;18.77;100.00;99750.59;6291214;28;20431;-70
2023/05/24 07:03:14;;;;;;;5.80;4.07;;;;;;;18.79;100.00;99756.59;6292790;28;20036;-71
2023/05/24 07:06:16;;;;;;;5.13;3.90;;;;;;;18.88;100.00;99749.56;6277120;28;20052;-71
2023/05/24 07:09:17;;;;;;;5.35;3.42;;;;;;;18.89;100.00;99757.34;6260093;28;20343;-71
2023/05/24 07:12:18;;;;;;;6.35;3.50;;;;;;;18.98;100.00;99754.75;6276841;28;20072;-70
2023/05/24 07:15:19;;;;;;;7.40;3.90;;;;;;;19.04;100.00;99762.88;6278417;28;20050;-70
2023/05/24 07:18:20;;;;;;;4.93;3.47;;;;;;;18.97;100.00;99758.41;6295568;28;20059;-70
2023/05/24 07:21:21;;;;;;;7.15;3.40;;;;;;;19.05;100.00;99761.09;6291670;28;20887;-70
2023/05/24 07:24:22;;;;;;;6.57;3.50;;;;;;;19.08;100.00;99766.06;6287524;28;20052;-71
2023/05/24 07:27:23;;;;;;;8.63;3.78;;;;;;;19.10;100.00;99751.69;6284524;28;20051;-71
2023/05/24 07:30:24;;;;;;;4.45;3.65;;;;;;;19.29;100.00;99763.88;6285606;28;20045;-71
2023/05/24 07:33:25;;;;;;;5.40;3.50;;;;;;;19.57;100.00;99765.50;6282785;28;20469;-70
2023/05/24 07:36:28;;;;;;;5.55;3.47;;;;;;;19.59;100.00;99779.41;6283114;28;20049;-71
2023/05/24 07:39:29;;;;;;;4.57;3.60;;;;;;;19.80;100.00;99781.66;6287853;28;20063;-71
2023/05/24 07:42:30;;;;;;;4.60;3.30;;;;;;;19.97;100.00;99788.66;6292712;28;20056;-71
2023/05/24 07:45:31;;;;;;;6.00;3.90;;;;;;;19.92;100.00;99788.34;6291320;28;20175;-70
2023/05/24 07:48:32;;;;;;;3.60;2.80;;;;;;;19.99;100.00;99789.34;6272066;28;20102;-70
2023/05/24 07:51:32;;;;;;;3.57;2.50;;;;;;;20.05;100.00;99786.03;6273773;28;20436;-70
2023/05/24 07:54:33;;;;;;;4.93;2.57;;;;;;;20.22;93.76;99786.94;6284519;28;20049;-71
2023/05/24 07:57:34;;;;;;;4.40;2.90;;;;;;;20.35;99.94;99778.50;6285413;28;20497;-70
2023/05/24 08:00:35;;;;;;;4.00;2.73;;;;;;;20.46;99.71;99782.66;6272064;28;20045;-70
2023/05/24 08:03:36;;;;;;;9.67;3.27;;;;;;;20.38;96.06;99788.75;6279469;28;20852;-70
2023/05/24 08:06:37;;;;;;;5.20;2.60;;;;;;;20.63;100.00;99792.31;6285704;28;20048;-70
2023/05/24 08:09:39;;;;;;;4.07;2.90;;;;;;;20.85;100.00;99795.28;6286185;28;20060;-70
2023/05/24 08:12:40;;;;;;;4.90;3.03;;;;;;;20.99;95.33;99805.22;6283263;28;20292;-71
2023/05/24 08:15:41;;;;;;;13.82;3.50;;;;;;;21.19;93.66;99807.50;6288306;28;20138;-70
2023/05/24 08:18:42;;;;;;;5.87;3.77;;;;;;;21.27;96.27;99808.34;6293957;28;20099;-70
2023/05/24 08:21:43;;;;;;;7.17;3.43;;;;;;;21.26;92.87;99803.19;6282810;28;20041;-70
2023/05/24 08:24:44;;;;;;;5.00;3.47;;;;;;;21.38;92.80;99809.81;6276971;28;20044;-70
2023/05/24 08:28:05;;;;;;;6.47;3.37;;;;;;;21.73;92.88;99819.19;6285435;28;20512;-71
2023/05/24 08:31:06;;;;;;;5.70;3.77;;;;;;;22.33;87.44;99814.28;6308880;28;20493;-70
2023/05/24 08:34:07;;;;;;;6.93;3.37;;;;;;;22.46;87.85;99825.16;6270950;28;20060;-71
2023/05/24 08:37:09;;;;;;;9.17;3.90;;;;;;;22.81;86.38;99827.41;6282165;28;20143;-70
2023/05/24 08:40:10;;;;;;;4.32;3.40;;;;;;;23.07;78.32;99822.53;6281132;28;20435;-71
2023/05/24 08:43:11;;;;;;;5.87;4.03;;;;;;;23.47;79.28;99820.50;6279365;28;20060;-70
2023/05/24 08:46:14;;;;;;;6.50;4.40;;;;;;;23.83;78.95;99826.94;6284553;28;20368;-71
2023/05/24 08:49:15;;;;;;;6.15;4.15;;;;;;;23.42;78.90;99824.72;6287076;28;20052;-70
2023/05/24 08:52:17;;;;;;;6.45;3.75;;;;;;;23.05;79.03;99829.06;6284275;28;20057;-71
2023/05/24 08:55:18;;;;;;;6.78;4.03;;;;;;;22.68;83.83;99839.47;6282137;28;20052;-71
2023/05/24 08:58:19;;;;;;;;;;;;;;;22.49;78.81;99832.78;6283627;28;20049;-71
2023/05/24 09:01:20;;;;;;;8.40;3.58;;;;;;;22.51;79.26;99833.44;6282544;28;20015;-70
2023/05/24 09:04:23;;;;;;;5.93;3.55;;;;;;;22.54;80.55;99841.03;6279906;28;20144;-70
2023/05/24 09:07:25;;;;;;;5.38;3.33;;;;;;;22.61;76.83;99843.84;6276837;28;20066;-71
2023/05/24 09:10:27;;;;;;;13.07;3.63;;;;;;;22.52;75.80;99848.38;6295495;28;20055;-71
2023/05/24 09:13:30;;;;;;;3.97;3.17;;;;;;;22.56;77.32;99846.19;6295071;28;20052;-71
2023/05/24 09:16:31;;;;;;;7.00;3.25;;;;;;;22.50;82.13;99841.56;6282249;28;20052;-71
2023/05/24 09:19:32;;;;;;;5.18;3.42;;;;;;;22.79;77.21;99856.81;6288448;28;20056;-71
2023/05/24 09:22:33;;;;;;;5.67;3.97;;;;;;;22.78;77.79;99857.03;6294805;28;20059;-70
2023/05/24 09:25:34;;;;;;;4.45;3.10;;;;;;;22.80;77.55;99852.34;6289583;28;20059;-70
2023/05/24 09:28:36;;;;;;;3.97;3.37;;;;;;;22.94;75.54;99862.22;6286597;28;20654;-70
2023/05/24 09:31:38;;;;;;;5.60;3.88;;;;;;;22.79;79.47;99856.00;6290387;28;20044;-70
2023/05/24 09:34:40;;;;;;;7.13;4.13;;;;;;;22.63;79.57;99856.94;6288962;28;20049;-70
2023/05/24 09:37:41;;;;;;;5.03;3.45;;;;;;;22.57;80.41;99855.84;6321269;28;20052;-70
2023/05/24 09:40:42;;;;;;;5.10;3.70;;;;;;;22.60;73.88;99863.44;6291732;28;20071;-70
2023/05/24 09:43:48;;;;;;;6.78;4.45;;;;;;;22.80;76.70;99857.69;6285740;28;20400;-71
2023/05/24 09:46:49;;;;;;;7.65;4.15;;;;;;;22.67;79.69;99867.06;6280454;28;20048;-71
2023/05/24 09:49:53;;;;;;;10.87;4.83;;;;;;;22.62;77.68;99865.94;6279474;28;20144;-71
2023/05/24 09:52:55;;;;;;;6.60;4.15;;;;;;;22.68;77.93;99859.91;6289087;28;20048;-70
2023/05/24 09:55:55;;;;;;;7.63;4.45;;;;;;;22.82;82.54;99861.81;6289529;28;20052;-71
2023/05/24 09:58:57;;;;;;;8.37;4.67;;;;;;;22.96;81.72;99862.03;6278431;28;20417;-71
2023/05/24 10:02:11;;;;;;;6.68;4.38;;;;;;;22.96;78.92;99867.34;6271758;28;20288;-70
2023/05/24 10:05:12;;;;;;;8.60;4.15;;;;;;;23.10;79.35;99863.94;6278838;28;20064;-71
2023/05/24 10:08:15;;;;;;;4.63;3.80;;;;;;;23.22;77.08;99859.81;6270194;28;20128;-70
2023/05/24 10:11:16;;;;;;;5.78;4.10;;;;;;;23.05;71.61;99853.00;6290639;28;20285;-70
2023/05/24 10:14:17;;;;;;;5.82;3.92;;;;;;;23.13;75.99;99861.75;6270475;28;20052;-70
2023/05/24 10:17:18;;;;;;;;;;;;;;;23.21;74.58;99852.03;6271805;28;20052;-70
2023/05/24 10:20:19;;;;;;;6.78;4.15;;;;;;;23.67;76.99;99858.03;6269058;28;19925;-70
2023/05/24 10:23:22;;;;;;;8.68;3.67;;;;;;;24.56;70.22;99857.13;6270096;28;20408;-71
2023/05/24 10:26:27;;;;;;;5.25;3.60;;;;;;;25.28;66.54;99855.31;6286845;28;20276;-71
2023/05/24 10:29:40;;;;;;;5.22;3.50;;;;;;;25.32;65.24;99859.25;6282670;28;20052;-70
2023/05/24 10:32:43;;;;;;;7.43;3.00;;;;;;;25.06;58.58;99862.50;6270082;28;20396;-70
2023/05/24 10:35:45;;;;;;;5.32;2.97;;;;;;;25.04;63.81;99854.72;6283743;28;20124;-70
2023/05/24 10:38:46;;;;;;;5.38;3.65;;;;;;;24.73;66.43;99847.06;6275539;28;20154;-70
2023/05/24 10:41:46;;;;;;;5.45;3.42;;;;;;;24.85;67.84;99853.53;6274880;28;20527;-70
2023/05/24 10:44:47;;;;;;;6.90;3.33;;;;;;;24.92;69.80;99853.59;6269440;28;20041;-71
2023/05/24 10:47:48;;;;;;;5.43;3.33;;;;;;;24.58;65.29;99852.44;6280308;28;20055;-71
2023/05/24 10:50:49;;;;;;;4.07;3.42;;;;;;;24.70;64.93;99852.75;6287440;28;20127;-70
2023/05/24 10:53:50;;;;;;;4.73;3.20;;;;;;;25.68;63.08;99847.59;6287849;28;20045;-72
2023/05/24 10:56:52;;;;;;;4.15;3.00;;;;;;;26.38;60.34;99851.00;6282537;28;20068;-70
2023/05/24 10:59:57;;;;;;;4.13;3.25;;;;;;;26.29;61.66;99846.84;6289982;28;20060;-71
2023/05/24 11:03:02;;;;;;;5.22;3.70;;;;;;;25.41;57.67;99841.25;6287102;28;20082;-71
2023/05/24 11:06:03;;;;;;;6.72;3.55;;;;;;;25.50;61.49;99846.25;6281045;28;20529;-71
2023/05/24 11:09:09;;;;;;;4.50;3.10;;;;;;;26.62;58.44;99846.13;6282218;28;20064;-72
2023/05/24 11:12:13;;;;;;;6.43;2.58;;;;;;;26.21;59.03;99841.66;6282528;28;20044;-70
2023/05/24 11:15:23;;;;;;;5.00;2.90;;;;;;;25.58;57.83;99829.25;6282296;28;20049;-71
2023/05/24 11:18:24;;;;;;;2.97;2.47;;;;;;;25.23;61.99;99826.56;6283858;28;20465;-70
2023/05/24 11:21:26;;;;;;;7.47;3.80;;;;;;;24.53;65.49;99823.66;6285021;28;20045;-71
2023/05/24 11:24:27;;;;;;;;;;;;;;;24.01;67.71;99827.38;6290434;28;20044;-71
2023/05/24 11:27:29;;;;;;;6.30;2.67;;;;;;;23.66;67.04;99819.13;6282859;28;20019;-70
2023/05/24 11:30:31;;;;;;;3.78;2.55;;;;;;;23.63;72.36;99830.13;6281988;28;20106;-70
2023/05/24 11:33:32;;;;;;;3.63;2.28;;;;;;;23.31;72.43;99810.03;6292151;28;20291;-71
2023/05/24 11:36:35;;;;;;;4.63;3.20;;;;;;;22.94;72.44;99811.69;6297123;28;20048;-71
2023/05/24 11:39:37;;;;;;;3.45;2.65;;;;;;;22.61;77.49;99813.75;6284954;28;20367;-71
2023/05/24 11:42:38;;;;;;;;;;;;;;;22.20;80.18;99827.28;6282795;28;20558;-70
2023/05/24 11:45:40;;;;;;;4.43;3.20;;;;;;;21.93;82.35;99824.91;6287501;28;19933;-71
2023/05/24 11:48:41;;;;;;;3.88;2.63;;;;;;;21.84;83.03;99827.78;6267913;28;20053;-71
2023/05/24 11:51:44;;;;;;;4.53;2.80;;;;;;;21.84;82.45;99847.19;6279816;28;20053;-70
2023/05/24 11:54:45;;;;;;;4.45;2.45;;;;;;;21.68;82.87;99847.25;6283758;28;20467;-71
2023/05/24 11:57:55;;;;;;;8.20;3.17;;;;;;;21.57;94.73;99845.78;6285895;28;20048;-73
2023/05/24 12:00:57;;;;;;;4.22;2.60;;;;;;;20.60;100.00;99852.78;6287798;28;20361;-73
2023/05/24 12:03:57;;;;;;;5.45;2.55;;;;;;;20.35;100.00;99842.09;6285730;28;20040;-73
2023/05/24 12:06:59;;;;;;;10.40;2.83;;;;;;;20.28;100.00;99844.56;6280408;28;20122;-73
2023/05/24 12:10:00;;;;;;;4.70;2.70;;;;;;;20.29;100.00;99846.22;6280816;28;20056;-73
2023/05/24 12:13:08;;;;;;;8.30;2.63;;;;;;;19.91;100.00;99851.06;6280907;28;20396;-73
2023/05/24 12:16:11;;;;;;;6.50;2.47;;;;;;;19.39;100.00;99869.56;6284954;28;20059;-73
2023/05/24 12:19:17;;;;;;;5.90;3.20;;;;;;;19.11;100.00;99869.72;6280640;28;20048;-73
2023/05/24 12:22:18;;;;;;;10.23;3.08;;;;;;;19.26;100.00;99871.81;6280245;28;20135;-72
2023/05/24 12:25:20;;;;;;;3.27;2.60;;;;;;;18.95;100.00;99858.19;6280345;28;20407;-73
2023/05/24 12:28:23;;;;;;;4.05;2.28;;;;;;;19.38;100.00;99856.53;6279962;28;20436;-72
2023/05/24 12:31:25;;;;;;;3.22;2.42;;;;;;;19.48;100.00;99844.84;6276212;28;20053;-72
2023/05/24 12:34:26;;;;;;;2.97;2.20;;;;;;;19.61;100.00;99846.22;6272974;28;20477;-73
2023/05/24 12:37:29;;;;;;;3.07;2.27;;;;;;;19.58;100.00;99849.19;6273915;28;20101;-72
2023/05/24 12:40:32;;;;;;;4.20;2.60;;;;;;;19.68;100.00;99858.69;6285223;28;20052;-73
2023/05/24 12:43:33;;;;;;;2.35;2.05;;;;;;;19.97;100.00;99854.03;6287725;28;20056;-73
2023/05/24 12:46:35;;;;;;;5.15;3.30;;;;;;;19.99;100.00;99855.53;6278019;28;20395;-73
2023/05/24 12:49:36;;;;;;;3.40;2.63;;;;;;;20.20;100.00;99847.19;6277207;28;20048;-73
2023/05/24 12:52:36;;;;;;;3.90;2.47;;;;;;;20.18;100.00;99853.63;6278040;28;20075;-73
2023/05/24 12:55:39;;;;;;;4.53;3.00;;;;;;;20.31;100.00;99846.06;6288859;28;20049;-73
2023/05/24 12:58:40;;;;;;;6.80;2.60;;;;;;;20.52;100.00;99849.06;6285788;28;20574;-72
2023/05/24 13:01:41;;;;;;;4.30;2.63;;;;;;;20.78;100.00;99842.84;6276048;28;20049;-72
2023/05/24 13:04:42;;;;;;;5.83;3.40;;;;;;;20.99;100.00;99849.50;6294054;28;20045;-72
2023/05/24 13:07:44;;;;;;;6.37;3.20;;;;;;;21.07;100.00;99842.34;6292938;28;20052;-72
2023/05/24 13:10:45;;;;;;;3.88;2.15;;;;;;;21.03;100.00;99842.84;6270427;28;20055;-72
2023/05/24 13:24:48;;;;;;;3.58;2.10;;;;;;;21.65;100.00;99839.63;6345988;27;21054;-73
2023/05/24 13:27:49;;;;;;;3.85;2.22;;;;;;;21.66;100.00;99834.16;6349357;27;20416;-73
2023/05/24 13:30:52;;;;;;;2.83;2.22;;;;;;;21.73;100.00;99823.69;6292061;28;20407;-72
2023/05/24 13:33:53;;;;;;;3.75;2.08;;;;;;;21.64;100.00;99827.34;6290994;28;20106;-72
2023/05/24 13:36:54;;;;;;;2.63;2.00;;;;;;;21.59;100.00;99821.72;6363871;27;20040;-72
2023/05/24 13:39:55;;;;;;;3.23;2.33;;;;;;;21.45;100.00;99815.28;6339890;28;20964;-72
2023/05/24 13:42:56;;;;;;;3.20;2.10;;;;;;;21.55;100.00;99823.88;6335299;28;20093;-72
2023/05/24 13:45:59;;;;;;;2.75;2.10;;;;;;;21.60;100.00;99818.91;6315959;28;20492;-72
2023/05/24 13:49:00;;;;;;;2.08;1.90;;;;;;;21.46;97.50;99811.66;6315753;28;20056;-73
2023/05/24 13:52:04;;;;;;;2.20;2.00;;;;;;;21.43;100.00;99815.44;6300169;28;20913;-72
2023/05/24 13:55:05;;;;;;;3.22;2.33;;;;;;;21.27;100.00;99804.84;6304785;28;20094;-73
2023/05/24 13:58:06;;;;;;;3.17;1.83;;;;;;;21.22;100.00;99810.66;6314599;28;20143;-72
2023/05/24 14:01:08;;;;;;;4.63;2.03;;;;;;;21.06;100.00;99811.50;6297233;28;20468;-73
2023/05/24 14:04:09;;;;;;;2.30;1.90;;;;;;;21.04;100.00;99800.22;6329671;27;20406;-73
2023/05/24 14:07:14;;;;;;;3.40;2.30;;;;;;;21.05;100.00;99807.22;6302152;28;20110;-73
2023/05/24 14:10:15;;;;;;;2.33;1.70;;;;;;;20.90;100.00;99799.09;6302502;28;20056;-73
2023/05/24 14:13:16;;;;;;;2.45;1.95;;;;;;;20.85;100.00;99811.19;6295981;28;20052;-73
2023/05/24 14:16:19;;;;;;;1.97;1.83;;;;;;;20.91;100.00;99818.50;6304283;28;20053;-74
2023/05/24 14:19:23;;;;;;;2.17;1.92;;;;;;;20.99;100.00;99815.00;6334000;27;20056;-73
2023/05/24 14:22:24;;;;;;;2.70;2.03;;;;;;;20.77;100.00;99812.00;6296646;28;20099;-73
2023/05/24 14:25:25;;;;;;;;;;;;;;;20.70;100.00;99813.69;6286635;28;20044;-73